Dedham, Iowa
Current Conditions -  °F | °C
As of 3:55 AM on Sunday 21 Dec 2014 (Local Time) from KCIN Reporting Station
Haze Haze  
Wind Chill: 28°   Ceiling: 700
Heat Index: 37°   Visibility: 5mi
Dew Point: 37°   Wind: 16mph
Humidity: 100%   Direction: 190°S
Pressure: 29.94"   Gusts: NA
Location:  41.91°N, 94.82°W
Report Text: KCIN 210955Z AUTO 19014KT 5SM BR OVC007 03/03 A2994 RMK AO2
Loading
Personal Weather Stations






























Interactive Weather Map New forecast layout! Learn more

10-Day Weather Forecast

Advertisements
Track Severe Weather on mobile